sensor_id;sensor_type;location;lat;lon;timestamp;P1;durP1;ratioP1;P2;durP2;ratioP2
68140;SDS011;54941;52.220;104.306;2023-12-29T00:01:20;27.35;;;12.95;;
68140;SDS011;54941;52.220;104.306;2023-12-29T00:03:48;26.10;;;12.43;;
68140;SDS011;54941;52.220;104.306;2023-12-29T00:06:14;24.00;;;12.35;;
68140;SDS011;54941;52.220;104.306;2023-12-29T00:08:40;26.83;;;12.95;;
68140;SDS011;54941;52.220;104.306;2023-12-29T00:11:06;26.38;;;12.68;;
68140;SDS011;54941;52.220;104.306;2023-12-29T00:13:33;25.33;;;11.90;;
68140;SDS011;54941;52.220;104.306;2023-12-29T00:15:59;27.30;;;12.10;;
68140;SDS011;54941;52.220;104.306;2023-12-29T00:18:25;29.35;;;11.60;;
68140;SDS011;54941;52.220;104.306;2023-12-29T00:20:53;24.33;;;11.35;;
68140;SDS011;54941;52.220;104.306;2023-12-29T00:23:19;25.95;;;12.07;;
68140;SDS011;54941;52.220;104.306;2023-12-29T00:25:46;26.95;;;11.60;;
68140;SDS011;54941;52.220;104.306;2023-12-29T00:28:12;24.98;;;12.07;;
68140;SDS011;54941;52.220;104.306;2023-12-29T00:30:39;22.00;;;10.93;;
68140;SDS011;54941;52.220;104.306;2023-12-29T00:33:05;21.20;;;9.90;;
68140;SDS011;54941;52.220;104.306;2023-12-29T00:35:31;22.85;;;10.55;;
68140;SDS011;54941;52.220;104.306;2023-12-29T00:37:59;23.80;;;8.88;;
68140;SDS011;54941;52.220;104.306;2023-12-29T00:40:25;26.52;;;11.15;;
68140;SDS011;54941;52.220;104.306;2023-12-29T00:42:52;23.80;;;10.00;;
68140;SDS011;54941;52.220;104.306;2023-12-29T00:45:18;22.80;;;10.80;;
68140;SDS011;54941;52.220;104.306;2023-12-29T00:47:44;22.95;;;11.35;;
68140;SDS011;54941;52.220;104.306;2023-12-29T00:50:11;23.70;;;10.73;;
68140;SDS011;54941;52.220;104.306;2023-12-29T00:52:38;26.65;;;11.60;;
68140;SDS011;54941;52.220;104.306;2023-12-29T00:55:06;26.90;;;12.55;;
68140;SDS011;54941;52.220;104.306;2023-12-29T00:57:33;26.45;;;11.23;;
68140;SDS011;54941;52.220;104.306;2023-12-29T00:59:59;23.38;;;11.15;;
68140;SDS011;54941;52.220;104.306;2023-12-29T01:02:26;23.50;;;11.40;;
68140;SDS011;54941;52.220;104.306;2023-12-29T01:04:52;23.92;;;12.00;;
68140;SDS011;54941;52.220;104.306;2023-12-29T01:07:19;24.45;;;10.98;;
68140;SDS011;54941;52.220;104.306;2023-12-29T01:09:45;24.38;;;11.25;;
68140;SDS011;54941;52.220;104.306;2023-12-29T01:12:13;24.88;;;11.10;;
68140;SDS011;54941;52.220;104.306;2023-12-29T01:14:39;23.88;;;11.40;;
68140;SDS011;54941;52.220;104.306;2023-12-29T01:17:06;21.60;;;10.98;;
68140;SDS011;54941;52.220;104.306;2023-12-29T01:19:32;26.33;;;11.18;;
68140;SDS011;54941;52.220;104.306;2023-12-29T01:21:58;26.75;;;12.02;;
68140;SDS011;54941;52.220;104.306;2023-12-29T01:24:25;27.30;;;12.30;;
68140;SDS011;54941;52.220;104.306;2023-12-29T01:26:51;25.58;;;11.98;;
68140;SDS011;54941;52.220;104.306;2023-12-29T01:29:19;29.73;;;11.63;;
68140;SDS011;54941;52.220;104.306;2023-12-29T01:31:45;31.35;;;13.55;;
68140;SDS011;54941;52.220;104.306;2023-12-29T01:34:12;28.10;;;13.57;;
68140;SDS011;54941;52.220;104.306;2023-12-29T01:36:38;25.45;;;11.55;;
68140;SDS011;54941;52.220;104.306;2023-12-29T01:39:04;25.70;;;11.38;;
68140;SDS011;54941;52.220;104.306;2023-12-29T01:41:30;26.88;;;11.85;;
68140;SDS011;54941;52.220;104.306;2023-12-29T01:44:17;30.05;;;12.05;;
68140;SDS011;54941;52.220;104.306;2023-12-29T01:46:46;23.85;;;10.75;;
68140;SDS011;54941;52.220;104.306;2023-12-29T01:49:15;26.92;;;11.30;;
68140;SDS011;54941;52.220;104.306;2023-12-29T01:51:42;29.95;;;12.80;;
68140;SDS011;54941;52.220;104.306;2023-12-29T01:54:08;28.35;;;12.75;;
68140;SDS011;54941;52.220;104.306;2023-12-29T01:56:36;27.08;;;12.20;;
68140;SDS011;54941;52.220;104.306;2023-12-29T01:59:03;33.65;;;13.57;;
68140;SDS011;54941;52.220;104.306;2023-12-29T02:01:31;24.92;;;11.02;;
68140;SDS011;54941;52.220;104.306;2023-12-29T02:03:57;26.23;;;11.52;;
68140;SDS011;54941;52.220;104.306;2023-12-29T02:32:13;31.77;;;14.77;;
68140;SDS011;54941;52.220;104.306;2023-12-29T02:34:43;29.80;;;13.73;;
68140;SDS011;54941;52.220;104.306;2023-12-29T02:37:13;34.45;;;12.70;;
68140;SDS011;54941;52.220;104.306;2023-12-29T02:39:40;30.60;;;14.10;;
68140;SDS011;54941;52.220;104.306;2023-12-29T02:42:07;31.55;;;13.15;;
68140;SDS011;54941;52.220;104.306;2023-12-29T02:44:33;26.95;;;13.13;;
68140;SDS011;54941;52.220;104.306;2023-12-29T02:46:59;26.70;;;12.65;;
68140;SDS011;54941;52.220;104.306;2023-12-29T02:49:27;29.77;;;12.77;;
68140;SDS011;54941;52.220;104.306;2023-12-29T02:51:53;29.35;;;12.82;;
68140;SDS011;54941;52.220;104.306;2023-12-29T02:54:20;26.48;;;12.73;;
68140;SDS011;54941;52.220;104.306;2023-12-29T02:56:46;38.40;;;15.48;;
68140;SDS011;54941;52.220;104.306;2023-12-29T02:59:13;28.35;;;13.30;;
68140;SDS011;54941;52.220;104.306;2023-12-29T03:01:40;27.40;;;13.40;;
68140;SDS011;54941;52.220;104.306;2023-12-29T03:04:06;29.02;;;13.20;;
68140;SDS011;54941;52.220;104.306;2023-12-29T03:06:34;28.95;;;12.63;;
68140;SDS011;54941;52.220;104.306;2023-12-29T03:09:00;26.38;;;11.90;;
68140;SDS011;54941;52.220;104.306;2023-12-29T03:11:26;24.55;;;12.55;;
68140;SDS011;54941;52.220;104.306;2023-12-29T03:13:52;22.63;;;11.57;;
68140;SDS011;54941;52.220;104.306;2023-12-29T03:16:19;25.05;;;12.18;;
68140;SDS011;54941;52.220;104.306;2023-12-29T03:18:45;24.85;;;11.68;;
68140;SDS011;54941;52.220;104.306;2023-12-29T03:21:11;23.05;;;11.57;;
68140;SDS011;54941;52.220;104.306;2023-12-29T03:23:39;25.63;;;11.82;;
68140;SDS011;54941;52.220;104.306;2023-12-29T03:26:05;27.60;;;11.52;;
68140;SDS011;54941;52.220;104.306;2023-12-29T03:28:31;26.73;;;13.07;;
68140;SDS011;54941;52.220;104.306;2023-12-29T03:30:57;26.48;;;12.43;;
68140;SDS011;54941;52.220;104.306;2023-12-29T03:33:24;24.27;;;11.55;;
68140;SDS011;54941;52.220;104.306;2023-12-29T03:35:50;26.85;;;12.48;;
68140;SDS011;54941;52.220;104.306;2023-12-29T03:38:16;21.58;;;11.55;;
68140;SDS011;54941;52.220;104.306;2023-12-29T03:40:44;22.13;;;10.30;;
68140;SDS011;54941;52.220;104.306;2023-12-29T03:43:10;20.38;;;10.68;;
68140;SDS011;54941;52.220;104.306;2023-12-29T03:45:37;19.85;;;9.60;;
68140;SDS011;54941;52.220;104.306;2023-12-29T03:48:03;23.00;;;10.32;;
68140;SDS011;54941;52.220;104.306;2023-12-29T03:50:29;20.88;;;10.20;;
68140;SDS011;54941;52.220;104.306;2023-12-29T03:52:57;23.35;;;10.55;;
68140;SDS011;54941;52.220;104.306;2023-12-29T03:55:23;25.45;;;11.23;;
68140;SDS011;54941;52.220;104.306;2023-12-29T03:57:51;21.83;;;10.63;;
68140;SDS011;54941;52.220;104.306;2023-12-29T04:00:17;26.92;;;11.52;;
68140;SDS011;54941;52.220;104.306;2023-12-29T04:02:43;26.00;;;12.35;;
68140;SDS011;54941;52.220;104.306;2023-12-29T04:05:10;19.10;;;9.55;;
68140;SDS011;54941;52.220;104.306;2023-12-29T04:07:36;22.45;;;10.35;;
68140;SDS011;54941;52.220;104.306;2023-12-29T04:10:04;22.67;;;10.35;;
68140;SDS011;54941;52.220;104.306;2023-12-29T04:12:31;23.60;;;10.45;;
68140;SDS011;54941;52.220;104.306;2023-12-29T04:14:59;23.33;;;10.68;;
68140;SDS011;54941;52.220;104.306;2023-12-29T04:17:25;22.17;;;9.85;;
68140;SDS011;54941;52.220;104.306;2023-12-29T04:19:51;20.85;;;9.48;;
68140;SDS011;54941;52.220;104.306;2023-12-29T04:22:17;19.77;;;9.32;;
68140;SDS011;54941;52.220;104.306;2023-12-29T04:24:44;21.30;;;10.30;;
68140;SDS011;54941;52.220;104.306;2023-12-29T04:27:11;19.42;;;9.05;;
68140;SDS011;54941;52.220;104.306;2023-12-29T04:29:39;26.33;;;11.65;;
68140;SDS011;54941;52.220;104.306;2023-12-29T04:32:07;19.63;;;9.57;;
68140;SDS011;54941;52.220;104.306;2023-12-29T04:34:33;25.08;;;11.20;;
68140;SDS011;54941;52.220;104.306;2023-12-29T04:36:59;21.33;;;10.48;;
68140;SDS011;54941;52.220;104.306;2023-12-29T04:39:26;21.70;;;11.05;;
68140;SDS011;54941;52.220;104.306;2023-12-29T04:41:53;21.98;;;10.45;;
68140;SDS011;54941;52.220;104.306;2023-12-29T04:44:19;21.48;;;9.95;;
68140;SDS011;54941;52.220;104.306;2023-12-29T04:46:45;21.38;;;10.55;;
68140;SDS011;54941;52.220;104.306;2023-12-29T04:49:13;20.70;;;9.88;;
68140;SDS011;54941;52.220;104.306;2023-12-29T04:51:39;20.83;;;10.40;;
68140;SDS011;54941;52.220;104.306;2023-12-29T04:54:05;22.83;;;11.63;;
68140;SDS011;54941;52.220;104.306;2023-12-29T04:56:32;18.77;;;9.02;;
68140;SDS011;54941;52.220;104.306;2023-12-29T04:58:58;19.33;;;10.05;;
68140;SDS011;54941;52.220;104.306;2023-12-29T05:01:24;21.27;;;10.18;;
68140;SDS011;54941;52.220;104.306;2023-12-29T05:03:50;20.35;;;9.32;;
68140;SDS011;54941;52.220;104.306;2023-12-29T05:06:18;19.10;;;9.65;;
68140;SDS011;54941;52.220;104.306;2023-12-29T05:08:44;21.13;;;9.05;;
68140;SDS011;54941;52.220;104.306;2023-12-29T05:11:11;23.63;;;11.43;;
68140;SDS011;54941;52.220;104.306;2023-12-29T05:13:37;20.52;;;10.20;;
68140;SDS011;54941;52.220;104.306;2023-12-29T05:16:06;21.58;;;9.45;;
68140;SDS011;54941;52.220;104.306;2023-12-29T05:18:32;18.20;;;8.43;;
68140;SDS011;54941;52.220;104.306;2023-12-29T05:20:58;21.33;;;9.95;;
68140;SDS011;54941;52.220;104.306;2023-12-29T05:23:26;25.98;;;11.57;;
68140;SDS011;54941;52.220;104.306;2023-12-29T05:25:52;18.45;;;8.85;;
68140;SDS011;54941;52.220;104.306;2023-12-29T05:28:19;16.65;;;8.77;;
68140;SDS011;54941;52.220;104.306;2023-12-29T05:30:45;19.63;;;9.50;;
68140;SDS011;54941;52.220;104.306;2023-12-29T05:33:11;33.55;;;21.50;;
68140;SDS011;54941;52.220;104.306;2023-12-29T05:35:37;42.50;;;32.20;;
68140;SDS011;54941;52.220;104.306;2023-12-29T05:38:04;45.88;;;30.20;;
68140;SDS011;54941;52.220;104.306;2023-12-29T05:40:31;36.83;;;23.92;;
68140;SDS011;54941;52.220;104.306;2023-12-29T05:42:58;31.58;;;19.02;;
68140;SDS011;54941;52.220;104.306;2023-12-29T05:45:24;85.82;;;45.47;;
68140;SDS011;54941;52.220;104.306;2023-12-29T05:47:50;44.15;;;24.13;;
68140;SDS011;54941;52.220;104.306;2023-12-29T05:50:16;20.35;;;8.80;;
68140;SDS011;54941;52.220;104.306;2023-12-29T05:52:43;25.30;;;11.00;;
68140;SDS011;54941;52.220;104.306;2023-12-29T05:55:09;21.20;;;9.57;;
68140;SDS011;54941;52.220;104.306;2023-12-29T05:57:37;18.63;;;9.15;;
68140;SDS011;54941;52.220;104.306;2023-12-29T06:00:03;20.50;;;8.93;;
68140;SDS011;54941;52.220;104.306;2023-12-29T06:02:30;16.48;;;7.25;;
68140;SDS011;54941;52.220;104.306;2023-12-29T06:04:56;22.15;;;8.15;;
68140;SDS011;54941;52.220;104.306;2023-12-29T06:07:23;18.45;;;7.47;;
68140;SDS011;54941;52.220;104.306;2023-12-29T06:09:49;16.45;;;7.50;;
68140;SDS011;54941;52.220;104.306;2023-12-29T06:12:15;17.65;;;7.93;;
68140;SDS011;54941;52.220;104.306;2023-12-29T06:14:43;17.38;;;7.38;;
68140;SDS011;54941;52.220;104.306;2023-12-29T06:17:09;24.77;;;10.43;;
68140;SDS011;54941;52.220;104.306;2023-12-29T06:19:35;19.10;;;8.73;;
68140;SDS011;54941;52.220;104.306;2023-12-29T06:22:02;19.58;;;8.32;;
68140;SDS011;54941;52.220;104.306;2023-12-29T06:24:28;19.60;;;8.90;;
68140;SDS011;54941;52.220;104.306;2023-12-29T06:26:54;20.90;;;9.25;;
68140;SDS011;54941;52.220;104.306;2023-12-29T06:29:21;24.00;;;11.20;;
68140;SDS011;54941;52.220;104.306;2023-12-29T06:31:48;15.60;;;7.93;;
68140;SDS011;54941;52.220;104.306;2023-12-29T06:34:15;25.35;;;8.57;;
68140;SDS011;54941;52.220;104.306;2023-12-29T06:36:41;19.98;;;8.48;;
68140;SDS011;54941;52.220;104.306;2023-12-29T06:39:07;14.70;;;7.38;;
68140;SDS011;54941;52.220;104.306;2023-12-29T06:41:33;17.48;;;7.68;;
68140;SDS011;54941;52.220;104.306;2023-12-29T06:44:00;18.17;;;7.43;;
68140;SDS011;54941;52.220;104.306;2023-12-29T06:46:26;15.23;;;6.60;;
68140;SDS011;54941;52.220;104.306;2023-12-29T06:48:54;18.35;;;7.03;;
68140;SDS011;54941;52.220;104.306;2023-12-29T06:51:20;15.20;;;6.55;;
68140;SDS011;54941;52.220;104.306;2023-12-29T06:53:46;12.60;;;5.65;;
68140;SDS011;54941;52.220;104.306;2023-12-29T06:56:13;14.27;;;5.63;;
68140;SDS011;54941;52.220;104.306;2023-12-29T06:58:40;9.57;;;5.03;;
68140;SDS011;54941;52.220;104.306;2023-12-29T07:01:06;12.30;;;6.10;;
68140;SDS011;54941;52.220;104.306;2023-12-29T07:03:32;12.82;;;5.55;;
68140;SDS011;54941;52.220;104.306;2023-12-29T07:06:01;11.95;;;5.57;;
68140;SDS011;54941;52.220;104.306;2023-12-29T07:08:27;11.48;;;5.38;;
68140;SDS011;54941;52.220;104.306;2023-12-29T07:10:54;12.68;;;6.00;;
68140;SDS011;54941;52.220;104.306;2023-12-29T07:13:20;12.85;;;5.80;;
68140;SDS011;54941;52.220;104.306;2023-12-29T07:15:46;10.90;;;5.15;;
68140;SDS011;54941;52.220;104.306;2023-12-29T07:18:13;15.07;;;7.10;;
68140;SDS011;54941;52.220;104.306;2023-12-29T07:20:39;13.50;;;6.40;;
68140;SDS011;54941;52.220;104.306;2023-12-29T07:23:07;12.50;;;6.22;;
68140;SDS011;54941;52.220;104.306;2023-12-29T07:25:33;11.73;;;5.82;;
68140;SDS011;54941;52.220;104.306;2023-12-29T07:28:00;11.70;;;6.53;;
68140;SDS011;54941;52.220;104.306;2023-12-29T07:30:26;11.27;;;5.93;;
68140;SDS011;54941;52.220;104.306;2023-12-29T07:32:52;15.38;;;6.68;;
68140;SDS011;54941;52.220;104.306;2023-12-29T07:35:18;10.20;;;4.90;;
68140;SDS011;54941;52.220;104.306;2023-12-29T07:37:45;11.63;;;5.43;;
68140;SDS011;54941;52.220;104.306;2023-12-29T07:40:14;13.15;;;7.07;;
68140;SDS011;54941;52.220;104.306;2023-12-29T07:42:40;13.73;;;5.85;;
68140;SDS011;54941;52.220;104.306;2023-12-29T07:45:07;12.80;;;5.97;;
68140;SDS011;54941;52.220;104.306;2023-12-29T07:47:34;12.70;;;5.65;;
68140;SDS011;54941;52.220;104.306;2023-12-29T07:50:00;10.50;;;5.13;;
68140;SDS011;54941;52.220;104.306;2023-12-29T07:52:27;12.82;;;5.90;;
68140;SDS011;54941;52.220;104.306;2023-12-29T07:54:53;10.77;;;4.93;;
68140;SDS011;54941;52.220;104.306;2023-12-29T07:57:21;9.68;;;4.18;;
68140;SDS011;54941;52.220;104.306;2023-12-29T07:59:47;11.38;;;4.85;;
68140;SDS011;54941;52.220;104.306;2023-12-29T08:02:13;12.82;;;5.53;;
68140;SDS011;54941;52.220;104.306;2023-12-29T08:04:40;12.20;;;5.35;;
68140;SDS011;54941;52.220;104.306;2023-12-29T08:07:06;11.38;;;5.60;;
68140;SDS011;54941;52.220;104.306;2023-12-29T08:09:32;12.90;;;5.43;;
68140;SDS011;54941;52.220;104.306;2023-12-29T08:11:58;12.90;;;5.03;;
68140;SDS011;54941;52.220;104.306;2023-12-29T08:14:26;9.77;;;4.22;;
68140;SDS011;54941;52.220;104.306;2023-12-29T08:16:52;10.38;;;4.95;;
68140;SDS011;54941;52.220;104.306;2023-12-29T08:19:19;10.05;;;4.63;;
68140;SDS011;54941;52.220;104.306;2023-12-29T08:21:45;10.13;;;4.88;;
68140;SDS011;54941;52.220;104.306;2023-12-29T08:24:11;10.02;;;5.43;;
68140;SDS011;54941;52.220;104.306;2023-12-29T08:26:43;15.45;;;7.03;;
68140;SDS011;54941;52.220;104.306;2023-12-29T08:29:10;16.45;;;7.32;;
68140;SDS011;54941;52.220;104.306;2023-12-29T08:31:38;12.00;;;6.30;;
68140;SDS011;54941;52.220;104.306;2023-12-29T08:34:04;27.20;;;19.33;;
68140;SDS011;54941;52.220;104.306;2023-12-29T08:36:30;29.88;;;15.80;;
68140;SDS011;54941;52.220;104.306;2023-12-29T08:38:56;14.65;;;8.52;;
68140;SDS011;54941;52.220;104.306;2023-12-29T08:41:23;61.83;;;43.33;;
68140;SDS011;54941;52.220;104.306;2023-12-29T08:43:49;14.25;;;8.35;;
68140;SDS011;54941;52.220;104.306;2023-12-29T08:46:15;14.15;;;8.35;;
68140;SDS011;54941;52.220;104.306;2023-12-29T08:48:43;19.33;;;8.27;;
68140;SDS011;54941;52.220;104.306;2023-12-29T08:51:09;14.93;;;7.95;;
68140;SDS011;54941;52.220;104.306;2023-12-29T08:53:35;15.00;;;6.18;;
68140;SDS011;54941;52.220;104.306;2023-12-29T08:56:02;9.82;;;5.13;;
68140;SDS011;54941;52.220;104.306;2023-12-29T08:58:28;14.68;;;7.30;;
68140;SDS011;54941;52.220;104.306;2023-12-29T09:00:55;12.05;;;5.22;;
68140;SDS011;54941;52.220;104.306;2023-12-29T09:03:21;18.00;;;8.00;;
68140;SDS011;54941;52.220;104.306;2023-12-29T09:05:49;13.75;;;7.93;;
68140;SDS011;54941;52.220;104.306;2023-12-29T09:08:15;14.75;;;7.75;;
68140;SDS011;54941;52.220;104.306;2023-12-29T09:10:42;15.73;;;7.65;;
68140;SDS011;54941;52.220;104.306;2023-12-29T09:13:08;14.98;;;9.02;;
68140;SDS011;54941;52.220;104.306;2023-12-29T09:15:34;14.60;;;7.78;;
68140;SDS011;54941;52.220;104.306;2023-12-29T09:18:01;13.48;;;7.13;;
68140;SDS011;54941;52.220;104.306;2023-12-29T09:20:27;19.98;;;11.23;;
68140;SDS011;54941;52.220;104.306;2023-12-29T09:22:55;28.30;;;18.30;;
68140;SDS011;54941;52.220;104.306;2023-12-29T09:25:21;24.48;;;15.57;;
68140;SDS011;54941;52.220;104.306;2023-12-29T09:27:47;30.83;;;20.60;;
68140;SDS011;54941;52.220;104.306;2023-12-29T09:30:13;19.17;;;9.80;;
68140;SDS011;54941;52.220;104.306;2023-12-29T09:32:40;46.75;;;21.35;;
68140;SDS011;54941;52.220;104.306;2023-12-29T09:35:06;38.95;;;21.33;;
68140;SDS011;54941;52.220;104.306;2023-12-29T09:37:32;68.80;;;49.60;;
68140;SDS011;54941;52.220;104.306;2023-12-29T09:40:01;18.33;;;9.30;;
68140;SDS011;54941;52.220;104.306;2023-12-29T09:42:29;14.20;;;7.40;;
68140;SDS011;54941;52.220;104.306;2023-12-29T09:44:57;14.52;;;6.70;;
68140;SDS011;54941;52.220;104.306;2023-12-29T09:47:25;14.88;;;6.75;;
68140;SDS011;54941;52.220;104.306;2023-12-29T09:49:52;11.38;;;5.30;;
68140;SDS011;54941;52.220;104.306;2023-12-29T09:52:20;12.35;;;6.07;;
68140;SDS011;54941;52.220;104.306;2023-12-29T09:54:47;12.70;;;6.28;;
68140;SDS011;54941;52.220;104.306;2023-12-29T09:57:17;13.65;;;6.32;;
68140;SDS011;54941;52.220;104.306;2023-12-29T09:59:44;15.70;;;6.93;;
68140;SDS011;54941;52.220;104.306;2023-12-29T10:02:12;13.82;;;7.10;;
68140;SDS011;54941;52.220;104.306;2023-12-29T10:04:39;16.67;;;7.28;;
68140;SDS011;54941;52.220;104.306;2023-12-29T10:07:10;12.23;;;6.60;;
68140;SDS011;54941;52.220;104.306;2023-12-29T10:09:44;11.75;;;5.97;;
68140;SDS011;54941;52.220;104.306;2023-12-29T10:12:13;14.95;;;7.00;;
68140;SDS011;54941;52.220;104.306;2023-12-29T10:14:44;13.40;;;6.05;;
68140;SDS011;54941;52.220;104.306;2023-12-29T10:17:16;15.13;;;7.55;;
68140;SDS011;54941;52.220;104.306;2023-12-29T10:19:53;12.73;;;7.05;;
68140;SDS011;54941;52.220;104.306;2023-12-29T10:22:35;16.00;;;7.15;;
68140;SDS011;54941;52.220;104.306;2023-12-29T10:25:10;16.88;;;7.45;;
68140;SDS011;54941;52.220;104.306;2023-12-29T10:27:37;16.20;;;7.38;;
68140;SDS011;54941;52.220;104.306;2023-12-29T10:30:05;16.33;;;7.28;;
68140;SDS011;54941;52.220;104.306;2023-12-29T10:32:36;15.43;;;7.05;;
68140;SDS011;54941;52.220;104.306;2023-12-29T10:35:08;15.52;;;7.70;;
68140;SDS011;54941;52.220;104.306;2023-12-29T10:37:35;15.38;;;7.10;;
68140;SDS011;54941;52.220;104.306;2023-12-29T10:40:02;12.80;;;5.85;;
68140;SDS011;54941;52.220;104.306;2023-12-29T10:42:29;14.13;;;5.93;;
68140;SDS011;54941;52.220;104.306;2023-12-29T10:45:05;13.52;;;5.70;;
68140;SDS011;54941;52.220;104.306;2023-12-29T10:47:33;15.10;;;7.85;;
68140;SDS011;54941;52.220;104.306;2023-12-29T10:49:59;21.38;;;11.07;;
68140;SDS011;54941;52.220;104.306;2023-12-29T10:52:29;18.10;;;7.85;;
68140;SDS011;54941;52.220;104.306;2023-12-29T10:55:03;18.52;;;7.53;;
68140;SDS011;54941;52.220;104.306;2023-12-29T10:57:31;19.02;;;8.00;;
68140;SDS011;54941;52.220;104.306;2023-12-29T10:59:57;23.65;;;8.48;;
68140;SDS011;54941;52.220;104.306;2023-12-29T11:02:25;25.90;;;8.98;;
68140;SDS011;54941;52.220;104.306;2023-12-29T11:04:51;21.48;;;8.13;;
68140;SDS011;54941;52.220;104.306;2023-12-29T11:07:18;19.85;;;7.65;;
68140;SDS011;54941;52.220;104.306;2023-12-29T11:09:59;15.00;;;6.65;;
68140;SDS011;54941;52.220;104.306;2023-12-29T11:12:26;14.40;;;6.10;;
68140;SDS011;54941;52.220;104.306;2023-12-29T11:14:52;14.93;;;6.13;;
68140;SDS011;54941;52.220;104.306;2023-12-29T11:17:19;13.15;;;5.25;;
68140;SDS011;54941;52.220;104.306;2023-12-29T11:19:48;17.40;;;7.72;;
68140;SDS011;54941;52.220;104.306;2023-12-29T11:22:16;13.23;;;5.65;;
68140;SDS011;54941;52.220;104.306;2023-12-29T11:24:45;10.55;;;5.50;;
68140;SDS011;54941;52.220;104.306;2023-12-29T11:27:12;13.75;;;5.78;;
68140;SDS011;54941;52.220;104.306;2023-12-29T11:29:41;15.20;;;6.43;;
68140;SDS011;54941;52.220;104.306;2023-12-29T11:32:10;11.38;;;5.05;;
68140;SDS011;54941;52.220;104.306;2023-12-29T11:34:41;11.75;;;5.15;;
68140;SDS011;54941;52.220;104.306;2023-12-29T11:37:15;9.75;;;4.88;;
68140;SDS011;54941;52.220;104.306;2023-12-29T11:39:53;13.93;;;6.15;;
68140;SDS011;54941;52.220;104.306;2023-12-29T11:42:31;15.15;;;6.57;;
68140;SDS011;54941;52.220;104.306;2023-12-29T11:47:51;14.32;;;5.90;;
68140;SDS011;54941;52.220;104.306;2023-12-29T11:50:17;12.32;;;6.78;;
68140;SDS011;54941;52.220;104.306;2023-12-29T11:52:54;12.30;;;6.45;;
68140;SDS011;54941;52.220;104.306;2023-12-29T11:55:21;13.65;;;5.75;;
68140;SDS011;54941;52.220;104.306;2023-12-29T11:57:53;11.00;;;5.80;;
68140;SDS011;54941;52.220;104.306;2023-12-29T12:00:20;13.52;;;6.65;;
68140;SDS011;54941;52.220;104.306;2023-12-29T12:02:46;11.77;;;5.95;;
68140;SDS011;54941;52.220;104.306;2023-12-29T12:05:12;12.77;;;6.07;;
68140;SDS011;54941;52.220;104.306;2023-12-29T12:08:11;11.70;;;6.47;;
68140;SDS011;54941;52.220;104.306;2023-12-29T12:10:52;12.73;;;6.05;;
68140;SDS011;54941;52.220;104.306;2023-12-29T12:16:19;10.75;;;5.32;;
68140;SDS011;54941;52.220;104.306;2023-12-29T12:19:13;11.02;;;5.07;;
68140;SDS011;54941;52.220;104.306;2023-12-29T12:21:40;12.38;;;5.30;;
68140;SDS011;54941;52.220;104.306;2023-12-29T12:24:09;12.32;;;5.63;;
68140;SDS011;54941;52.220;104.306;2023-12-29T12:26:35;13.98;;;5.57;;
68140;SDS011;54941;52.220;104.306;2023-12-29T12:29:01;11.43;;;4.72;;
68140;SDS011;54941;52.220;104.306;2023-12-29T12:31:28;12.15;;;5.15;;
68140;SDS011;54941;52.220;104.306;2023-12-29T12:33:55;10.75;;;4.63;;
68140;SDS011;54941;52.220;104.306;2023-12-29T12:36:21;10.10;;;4.55;;
68140;SDS011;54941;52.220;104.306;2023-12-29T12:38:52;9.27;;;4.63;;
68140;SDS011;54941;52.220;104.306;2023-12-29T12:41:20;8.82;;;4.75;;
68140;SDS011;54941;52.220;104.306;2023-12-29T12:43:49;9.68;;;4.65;;
68140;SDS011;54941;52.220;104.306;2023-12-29T12:46:22;9.63;;;4.32;;
68140;SDS011;54941;52.220;104.306;2023-12-29T12:48:49;10.95;;;4.90;;
68140;SDS011;54941;52.220;104.306;2023-12-29T12:51:15;8.85;;;4.32;;
68140;SDS011;54941;52.220;104.306;2023-12-29T12:53:44;11.43;;;4.57;;
68140;SDS011;54941;52.220;104.306;2023-12-29T12:56:11;12.38;;;5.15;;
68140;SDS011;54941;52.220;104.306;2023-12-29T12:58:39;9.32;;;4.63;;
68140;SDS011;54941;52.220;104.306;2023-12-29T13:01:06;8.98;;;4.97;;
68140;SDS011;54941;52.220;104.306;2023-12-29T13:03:33;9.35;;;4.57;;
68140;SDS011;54941;52.220;104.306;2023-12-29T13:06:02;10.52;;;4.13;;
68140;SDS011;54941;52.220;104.306;2023-12-29T13:08:29;11.23;;;5.15;;
68140;SDS011;54941;52.220;104.306;2023-12-29T13:10:55;12.00;;;5.60;;
68140;SDS011;54941;52.220;104.306;2023-12-29T13:13:21;13.38;;;6.03;;
68140;SDS011;54941;52.220;104.306;2023-12-29T13:15:49;10.95;;;5.25;;
68140;SDS011;54941;52.220;104.306;2023-12-29T13:18:16;10.52;;;4.88;;
68140;SDS011;54941;52.220;104.306;2023-12-29T13:20:43;11.48;;;4.63;;
68140;SDS011;54941;52.220;104.306;2023-12-29T13:23:10;9.95;;;4.68;;
68140;SDS011;54941;52.220;104.306;2023-12-29T13:25:36;12.45;;;6.03;;
68140;SDS011;54941;52.220;104.306;2023-12-29T13:28:06;13.43;;;5.72;;
68140;SDS011;54941;52.220;104.306;2023-12-29T13:30:33;11.80;;;5.40;;
68140;SDS011;54941;52.220;104.306;2023-12-29T13:33:02;11.27;;;5.30;;
68140;SDS011;54941;52.220;104.306;2023-12-29T13:35:38;11.52;;;5.80;;
68140;SDS011;54941;52.220;104.306;2023-12-29T13:38:12;14.52;;;5.70;;
68140;SDS011;54941;52.220;104.306;2023-12-29T13:40:46;12.43;;;5.90;;
68140;SDS011;54941;52.220;104.306;2023-12-29T13:43:19;11.13;;;5.82;;
68140;SDS011;54941;52.220;104.306;2023-12-29T13:45:47;13.10;;;5.70;;
68140;SDS011;54941;52.220;104.306;2023-12-29T13:48:15;12.68;;;6.05;;
68140;SDS011;54941;52.220;104.306;2023-12-29T13:50:44;11.80;;;6.13;;
68140;SDS011;54941;52.220;104.306;2023-12-29T13:53:15;15.50;;;6.38;;
68140;SDS011;54941;52.220;104.306;2023-12-29T13:55:43;13.52;;;5.43;;
68140;SDS011;54941;52.220;104.306;2023-12-29T13:58:09;13.77;;;6.32;;
68140;SDS011;54941;52.220;104.306;2023-12-29T14:00:36;11.52;;;5.28;;
68140;SDS011;54941;52.220;104.306;2023-12-29T14:03:06;16.90;;;7.55;;
68140;SDS011;54941;52.220;104.306;2023-12-29T14:05:47;15.07;;;5.95;;
68140;SDS011;54941;52.220;104.306;2023-12-29T14:08:17;12.70;;;6.60;;
68140;SDS011;54941;52.220;104.306;2023-12-29T14:10:44;17.05;;;7.22;;
68140;SDS011;54941;52.220;104.306;2023-12-29T14:13:12;16.55;;;7.18;;
68140;SDS011;54941;52.220;104.306;2023-12-29T14:15:40;18.13;;;7.72;;
68140;SDS011;54941;52.220;104.306;2023-12-29T14:18:09;17.65;;;7.93;;
68140;SDS011;54941;52.220;104.306;2023-12-29T14:20:53;16.40;;;6.82;;
68140;SDS011;54941;52.220;104.306;2023-12-29T14:23:19;17.85;;;7.43;;
68140;SDS011;54941;52.220;104.306;2023-12-29T14:25:46;13.38;;;5.72;;
68140;SDS011;54941;52.220;104.306;2023-12-29T14:28:14;14.20;;;6.00;;
68140;SDS011;54941;52.220;104.306;2023-12-29T14:30:41;13.15;;;6.03;;
68140;SDS011;54941;52.220;104.306;2023-12-29T14:33:07;24.00;;;9.52;;
68140;SDS011;54941;52.220;104.306;2023-12-29T14:35:34;13.63;;;6.43;;
68140;SDS011;54941;52.220;104.306;2023-12-29T14:38:02;27.98;;;9.27;;
68140;SDS011;54941;52.220;104.306;2023-12-29T14:40:29;16.98;;;7.15;;